createdAt,value
2024-02-20T22:48:38.434Z,61.32
2024-02-20T22:49:46.609Z,59.62
2024-02-20T22:50:49.966Z,57.53
2024-02-20T22:51:53.258Z,59.30
2024-02-20T22:52:56.375Z,56.32
2024-02-20T22:54:01.793Z,53.25
2024-02-20T22:55:05.114Z,51.85
2024-02-20T22:56:08.845Z,55.23
2024-02-20T22:57:12.105Z,52.10
2024-02-20T22:58:15.377Z,48.93
2024-02-20T22:59:19.357Z,46.93
2024-02-20T23:00:22.371Z,47.02
2024-02-20T23:01:25.447Z,47.52
2024-02-20T23:02:28.758Z,47.93
2024-02-20T23:03:34.010Z,47.03
2024-02-20T23:04:37.440Z,46.22
2024-02-20T23:05:41.549Z,46.72
2024-02-20T23:06:44.814Z,46.97
2024-02-20T23:07:47.917Z,48.08
2024-02-20T23:08:51.198Z,46.30
2024-02-20T23:09:54.164Z,46.45
2024-02-20T23:10:59.972Z,46.17
2024-02-20T23:12:03.541Z,45.12
2024-02-20T23:13:06.748Z,45.53
2024-02-20T23:14:09.732Z,45.18
2024-02-20T23:15:13.917Z,45.12
2024-02-20T23:16:17.212Z,47.98
2024-02-20T23:17:20.752Z,47.22
2024-02-20T23:18:24.036Z,46.40
2024-02-20T23:19:27.428Z,45.02
2024-02-20T23:20:30.667Z,44.45
2024-02-20T23:21:33.879Z,45.80
2024-02-20T23:22:36.977Z,45.68
2024-02-20T23:23:40.210Z,47.57
2024-02-20T23:24:43.992Z,47.53
2024-02-20T23:25:46.990Z,45.07
2024-02-20T23:26:52.535Z,49.15
2024-02-20T23:27:55.796Z,52.85
2024-02-20T23:28:59.015Z,58.78
2024-02-20T23:30:02.913Z,58.83
2024-02-20T23:31:05.911Z,57.32
2024-02-20T23:32:08.977Z,58.68
2024-02-20T23:33:12.215Z,55.50
2024-02-20T23:34:15.275Z,58.75
2024-02-20T23:35:18.426Z,57.82
2024-02-20T23:36:21.495Z,58.15
2024-02-20T23:37:25.523Z,58.77
2024-02-20T23:38:29.493Z,63.33
2024-02-20T23:39:32.479Z,64.65
2024-02-20T23:40:35.768Z,67.80
2024-02-20T23:41:38.962Z,71.32
2024-02-20T23:42:43.882Z,66.07
2024-02-20T23:43:46.947Z,67.50
2024-02-20T23:44:51.594Z,68.88
2024-02-20T23:45:57.084Z,69.47
2024-02-20T23:47:00.405Z,68.28
2024-02-20T23:48:03.571Z,68.38
2024-02-20T23:49:09.777Z,68.33
2024-02-20T23:50:13.657Z,69.10
2024-02-20T23:51:17.021Z,67.73
2024-02-20T23:52:20.960Z,68.07
2024-02-20T23:53:24.467Z,68.57
2024-02-20T23:54:29.500Z,70.25
2024-02-20T23:55:38.249Z,71.07
2024-02-20T23:56:41.406Z,70.13
2024-02-20T23:57:44.357Z,70.23
2024-02-20T23:58:47.620Z,68.63
2024-02-20T23:59:58.777Z,70.30
